Buckingham, Illinois
Current Conditions -  °F | °C
As of 7:55 AM on Wednesday 26 Nov 2014 (Local Time) from KPNT Reporting Station
Overcast Overcast  
Wind Chill: 14°   Ceiling: 1800
Heat Index: 26°   Visibility: 10mi
Dew Point: 23°   Wind: 13mph
Humidity: 90%   Direction: 120°ESE
Pressure: 30.15"   Gusts: NA
Location:  41.05°N, 88.18°W
Report Text: KPNT 261355Z AUTO 12011KT 10SM OVC018 M04/M05 A3015 RMK AO2 T10361050
Loading
Personal Weather Stations






























Interactive Weather Map New forecast layout! Learn more

10-Day Weather Forecast

Advertisements
Track Severe Weather on mobile